Costa Fascinosa — ICPO — position and weather

sailwx.info

Track history (hours):
 
Tides and Currents Weather Stations Pressure Air Temp Water Temp Dewpoint Dewpoint Depression Visibility Wind Speed Wind Dir Waves Ship Positions

Costa Fascinosa

Last reported at 2020-Jan-24 12:00 UTC. Time now 2020-Jan-25 04:27 UTC.
Position S 23°27' W 043°22'.

Length 290 m; draft 8.3 m.

Type: Passenger vessel. MMSI: 247313500.

Date/timePositionNaut miles runAvg speedWind from/ knotsBaromVisibWave heightAir tempDewpointWater temp
2020-Jan-24 12:00S 23°27' W 043°22'2019.4
2020-Jan-24 10:59S 23°24' W 043°00'1019.7
2020-Jan-24 10:30S 23°23' W 042°50'  
2020-Jan-20 10:54S 23°07' W 042°13'2518.2
2020-Jan-20 09:30S 23°15' W 042°39'918.6
2020-Jan-20 09:00S 23°18' W 042°48'3718.6
2020-Jan-20 07:00S 23°29' W 043°27'1918.5
2020-Jan-20 06:00S 23°36' W 043°46'14115.6
2020-Jan-19 20:55S 23°57' W 046°19'0 0.0
2020-Jan-19 18:49S 23°57' W 046°19'0 0.0
2020-Jan-19 18:28S 23°57' W 046°19'0 0.0
2020-Jan-19 16:28S 23°57' W 046°19'0 0.0
2020-Jan-19 12:55S 23°57' W 046°19'0 0.0
2020-Jan-19 10:49S 23°57' W 046°19'0 1.1
2020-Jan-19 10:30S 23°57' W 046°18'2 3.1
2020-Jan-19 10:00S 23°59' W 046°17'  
2020-Jan-16 17:28S 34°54' W 056°13'0 0.0
2020-Jan-16 16:55S 34°54' W 056°13'0 0.0
2020-Jan-16 13:58S 34°54' W 056°13'0 0.0
2020-Jan-16 12:58S 34°54' W 056°13'0 0.0
2020-Jan-16 12:28S 34°54' W 056°13'0 0.1
2020-Jan-16 12:00S 34°54' W 056°13'6 6.3
2020-Jan-16 11:00S 35°00' W 056°11'10 6.4
2020-Jan-16 09:30S 35°02' W 055°59'4 2.9
2020-Jan-16 08:05S 35°05' W 055°55'3910.8
2020-Jan-16 04:30S 35°10' W 056°42'  
Track history (hours):
 
Tides and Currents Weather Stations Pressure Air Temp Water Temp Dewpoint Dewpoint Depression Visibility Wind Speed Wind Dir Waves Ship Positions

Costa Fascinosa

Last reported at 2020-Jan-24 12:00 UTC. Time now 2020-Jan-25 04:27 UTC.
Position S 23°27' W 043°22'.

Length 290 m; draft 8.3 m.

Type: Passenger vessel. MMSI: 247313500.

Date/timePositionNaut miles runAvg speedWind from/ knotsBaromVisibWave heightAir tempDewpointWater temp
2020-Jan-24 12:00S 23°27' W 043°22'2019.4
2020-Jan-24 10:59S 23°24' W 043°00'1019.7
2020-Jan-24 10:30S 23°23' W 042°50'  
2020-Jan-20 10:54S 23°07' W 042°13'2518.2
2020-Jan-20 09:30S 23°15' W 042°39'918.6
2020-Jan-20 09:00S 23°18' W 042°48'3718.6
2020-Jan-20 07:00S 23°29' W 043°27'1918.5
2020-Jan-20 06:00S 23°36' W 043°46'14115.6
2020-Jan-19 20:55S 23°57' W 046°19'0 0.0
2020-Jan-19 18:49S 23°57' W 046°19'0 0.0
2020-Jan-19 18:28S 23°57' W 046°19'0 0.0
2020-Jan-19 16:28S 23°57' W 046°19'0 0.0
2020-Jan-19 12:55S 23°57' W 046°19'0 0.0
2020-Jan-19 10:49S 23°57' W 046°19'0 1.1
2020-Jan-19 10:30S 23°57' W 046°18'2 3.1
2020-Jan-19 10:00S 23°59' W 046°17'  
2020-Jan-16 17:28S 34°54' W 056°13'0 0.0
2020-Jan-16 16:55S 34°54' W 056°13'0 0.0
2020-Jan-16 13:58S 34°54' W 056°13'0 0.0
2020-Jan-16 12:58S 34°54' W 056°13'0 0.0
2020-Jan-16 12:28S 34°54' W 056°13'0 0.1
2020-Jan-16 12:00S 34°54' W 056°13'6 6.3
2020-Jan-16 11:00S 35°00' W 056°11'10 6.4
2020-Jan-16 09:30S 35°02' W 055°59'4 2.9
2020-Jan-16 08:05S 35°05' W 055°55'3910.8
2020-Jan-16 04:30S 35°10' W 056°42'  

Dump ship's entire track history